Arroio do Sal, Brazil
Current Conditions -  °F | °C
As of 10:00 AM on Saturday 27 Dec 2014 (Local Time) from SBCM Reporting Station
Clear Clear  
Wind Chill: 77°   Ceiling: Unl
Heat Index: 79°   Visibility: 6mi
Dew Point: 70°   Wind: 0mph
Humidity: 78%   Direction: NA
Pressure: 29.91"   Gusts: NA
Location:  29.55°S, 49.89°W
Report Text: SBCM 271200Z 00000KT CAVOK 25/21 Q1013
Loading
Personal Weather Stations






























Interactive Weather Map New forecast layout! Learn more

10-Day Weather Forecast

Advertisements
Track Severe Weather on mobile